Time;durP1;ratioP1;P1;durP2;ratioP2;P2;SDS_P1;SDS_P2;PMS_P1;PMS_P2;Temp;Humidity;BMP_temperature;BMP_pressure;BME280_temperature;BME280_humidity;BME280_pressure;Samples;Min_cycle;Max_cycle;Signal;HPM_P1;HPM_P2
2021/03/07 00:00:33;;;;;;;164.13;148.65;;;;;;;;;;5069668;28;20016;-77
2021/03/07 00:02:58;;;;;;;155.18;139.52;;;;;;;;;;5066559;28;20055;-76
2021/03/07 00:05:23;;;;;;;161.73;145.95;;;;;;;;;;5065485;28;20394;-76
2021/03/07 00:07:49;;;;;;;226.68;206.15;;;;;;;;;;5061173;28;20028;-76
2021/03/07 00:10:16;;;;;;;146.05;131.95;;;;;;;;;;5062093;28;20383;-77
2021/03/07 00:12:42;;;;;;;172.00;156.02;;;;;;;;;;5066770;28;20376;-77
2021/03/07 00:15:09;;;;;;;154.77;140.43;;;;;;;;;;5061145;28;20017;-77
2021/03/07 00:17:34;;;;;;;147.02;133.13;;;;;;;;;;5061806;28;20077;-77
2021/03/07 00:20:00;;;;;;;146.05;132.05;;;;;;;;;;5064449;28;20013;-77
2021/03/07 00:22:25;;;;;;;144.77;131.98;;;;;;;;;;5062285;28;20068;-76
2021/03/07 00:24:50;;;;;;;170.68;156.07;;;;;;;;;;5066836;28;20055;-76
2021/03/07 00:27:16;;;;;;;145.98;131.57;;;;;;;;;;5071560;28;20033;-77
2021/03/07 00:29:42;;;;;;;146.70;133.15;;;;;;;;;;5070826;28;20031;-77
2021/03/07 00:32:07;;;;;;;153.05;139.68;;;;;;;;;;5063640;28;20626;-78
2021/03/07 00:34:32;;;;;;;160.77;145.80;;;;;;;;;;5059437;28;20025;-78
2021/03/07 00:36:58;;;;;;;151.27;137.38;;;;;;;;;;5058061;28;20028;-78
2021/03/07 00:39:23;;;;;;;160.75;144.57;;;;;;;;;;5064738;28;20420;-77
2021/03/07 00:41:49;;;;;;;232.20;210.68;;;;;;;;;;5061639;28;20027;-77
2021/03/07 00:44:15;;;;;;;158.95;143.70;;;;;;;;;;5057000;28;20428;-77
2021/03/07 00:46:45;;;;;;;160.90;145.80;;;;;;;;;;5059822;28;20408;-77
2021/03/07 00:49:10;;;;;;;176.55;159.48;;;;;;;;;;5071409;28;20146;-77
2021/03/07 00:51:36;;;;;;;198.90;180.40;;;;;;;;;;5065803;28;20104;-78
2021/03/07 00:54:01;;;;;;;163.18;148.35;;;;;;;;;;5057845;28;20025;-76
2021/03/07 00:56:27;;;;;;;208.57;189.68;;;;;;;;;;5066023;28;20016;-77
2021/03/07 00:58:52;;;;;;;160.70;145.88;;;;;;;;;;5069975;28;20032;-78
2021/03/07 01:01:18;;;;;;;167.07;151.07;;;;;;;;;;5058810;28;20023;-77
2021/03/07 01:03:43;;;;;;;165.90;150.63;;;;;;;;;;5059383;28;20052;-77
2021/03/07 01:06:09;;;;;;;286.00;259.30;;;;;;;;;;5060470;28;20087;-77
2021/03/07 01:08:35;;;;;;;163.85;148.32;;;;;;;;;;5063489;28;20050;-76
2021/03/07 01:11:00;;;;;;;162.70;147.20;;;;;;;;;;5059716;28;20440;-78
2021/03/07 01:13:26;;;;;;;236.23;213.25;;;;;;;;;;5058310;28;20484;-78
2021/03/07 01:15:51;;;;;;;154.90;140.48;;;;;;;;;;5058576;28;20035;-77
2021/03/07 01:18:17;;;;;;;1999.90;999.90;;;;;;;;;;5062086;28;20025;-77
2021/03/07 01:20:43;;;;;;;1999.90;999.90;;;;;;;;;;5057745;28;20024;-76
2021/03/07 01:23:08;;;;;;;1999.90;999.90;;;;;;;;;;5061379;28;20084;-76
2021/03/07 01:25:34;;;;;;;1999.90;999.90;;;;;;;;;;5064570;28;20056;-77
2021/03/07 01:28:03;;;;;;;1999.90;999.90;;;;;;;;;;5057296;28;20048;-77
2021/03/07 01:30:29;;;;;;;1999.90;999.90;;;;;;;;;;5059722;28;20041;-77
2021/03/07 01:32:55;;;;;;;1999.90;999.90;;;;;;;;;;5059121;28;20048;-76
2021/03/07 01:35:21;;;;;;;1999.90;999.90;;;;;;;;;;5061160;28;20028;-76
2021/03/07 01:37:46;;;;;;;1999.90;999.90;;;;;;;;;;5061464;28;20047;-76
2021/03/07 01:40:14;;;;;;;1999.90;999.90;;;;;;;;;;5070803;28;20017;-77
2021/03/07 01:42:58;;;;;;;1999.90;999.90;;;;;;;;;;5056281;28;20033;-77
2021/03/07 01:45:25;;;;;;;1999.90;999.90;;;;;;;;;;5057841;28;20036;-77
2021/03/07 01:47:52;;;;;;;1999.90;999.90;;;;;;;;;;5062633;28;20131;-77
2021/03/07 01:50:19;;;;;;;1999.90;999.90;;;;;;;;;;5062658;28;20128;-78
2021/03/07 01:52:46;;;;;;;1999.90;999.90;;;;;;;;;;5065995;28;20369;-77
2021/03/07 01:55:12;;;;;;;192.00;173.57;;;;;;;;;;5063542;28;20044;-77
2021/03/07 01:57:37;;;;;;;1999.90;999.90;;;;;;;;;;5063412;28;20028;-77
2021/03/07 02:00:07;;;;;;;1094.22;585.75;;;;;;;;;;5065254;28;20033;-78
2021/03/07 02:02:37;;;;;;;176.07;159.25;;;;;;;;;;5067732;28;20531;-77
2021/03/07 02:05:07;;;;;;;1999.90;999.90;;;;;;;;;;5058197;28;20136;-77
2021/03/07 02:07:32;;;;;;;1999.90;999.90;;;;;;;;;;5058950;28;20041;-77
2021/03/07 02:09:58;;;;;;;1092.65;584.20;;;;;;;;;;5065534;28;20107;-77
2021/03/07 02:12:23;;;;;;;1999.90;999.90;;;;;;;;;;5067474;28;20029;-77
2021/03/07 02:14:50;;;;;;;183.57;166.85;;;;;;;;;;5065532;28;20051;-77
2021/03/07 02:17:16;;;;;;;1999.90;999.90;;;;;;;;;;5058812;28;20028;-77
2021/03/07 02:19:41;;;;;;;1999.90;999.90;;;;;;;;;;5062688;28;20058;-78
2021/03/07 02:22:09;;;;;;;641.35;378.50;;;;;;;;;;5060941;28;20029;-77
2021/03/07 02:24:34;;;;;;;182.63;165.93;;;;;;;;;;5063006;28;20040;-77
2021/03/07 02:27:00;;;;;;;1999.90;999.90;;;;;;;;;;5060942;28;20037;-77
2021/03/07 02:29:26;;;;;;;1999.90;999.90;;;;;;;;;;5069420;28;20490;-77
2021/03/07 02:31:56;;;;;;;1999.90;999.90;;;;;;;;;;5061703;28;20414;-77
2021/03/07 02:34:24;;;;;;;179.07;162.57;;;;;;;;;;5068043;28;20047;-77
2021/03/07 02:36:51;;;;;;;182.50;165.80;;;;;;;;;;5060468;28;20546;-77
2021/03/07 02:39:23;;;;;;;193.13;176.35;;;;;;;;;;5054650;28;20430;-77
2021/03/07 02:41:48;;;;;;;183.40;166.25;;;;;;;;;;5059353;28;20033;-77
2021/03/07 02:44:15;;;;;;;218.40;200.00;;;;;;;;;;5061479;28;20060;-76
2021/03/07 02:46:41;;;;;;;180.68;163.82;;;;;;;;;;5061194;28;20037;-77
2021/03/07 02:49:12;;;;;;;238.65;217.98;;;;;;;;;;5055374;28;20013;-77
2021/03/07 02:51:37;;;;;;;184.60;167.80;;;;;;;;;;5065697;28;20032;-77
2021/03/07 02:54:05;;;;;;;631.15;368.92;;;;;;;;;;5059375;28;20092;-77
2021/03/07 02:56:31;;;;;;;1999.90;999.90;;;;;;;;;;5066877;28;20055;-77
2021/03/07 02:59:00;;;;;;;1110.28;600.55;;;;;;;;;;5054770;28;20469;-77
2021/03/07 03:01:26;;;;;;;1999.90;999.90;;;;;;;;;;5058833;28;20110;-77
2021/03/07 03:03:53;;;;;;;191.52;173.88;;;;;;;;;;5052439;28;20138;-77
2021/03/07 03:06:19;;;;;;;1999.90;999.90;;;;;;;;;;5055339;28;20029;-77
2021/03/07 03:08:46;;;;;;;1999.90;999.90;;;;;;;;;;5059574;28;20114;-77
2021/03/07 03:11:12;;;;;;;194.57;176.20;;;;;;;;;;5059563;28;20028;-77
2021/03/07 03:13:38;;;;;;;197.02;178.35;;;;;;;;;;5065263;28;20523;-77
2021/03/07 03:16:04;;;;;;;1999.90;999.90;;;;;;;;;;5054364;28;20033;-78
2021/03/07 03:18:31;;;;;;;1999.90;999.90;;;;;;;;;;5057686;28;20036;-76
2021/03/07 03:21:01;;;;;;;200.77;183.43;;;;;;;;;;5060632;28;20083;-76
2021/03/07 03:23:27;;;;;;;1098.25;589.53;;;;;;;;;;5060862;28;20451;-76
2021/03/07 03:25:52;;;;;;;195.00;177.38;;;;;;;;;;5063802;28;20450;-77
2021/03/07 03:28:21;;;;;;;1999.90;999.90;;;;;;;;;;5061034;28;20078;-77
2021/03/07 03:30:46;;;;;;;198.18;179.13;;;;;;;;;;5059410;28;20040;-77
2021/03/07 03:33:12;;;;;;;194.43;175.77;;;;;;;;;;5065769;28;20410;-77
2021/03/07 03:35:38;;;;;;;1100.80;591.58;;;;;;;;;;5067688;28;20312;-77
2021/03/07 03:38:03;;;;;;;194.63;176.10;;;;;;;;;;5057634;28;20048;-77
2021/03/07 03:40:29;;;;;;;221.40;201.55;;;;;;;;;;5046751;28;20062;-77
2021/03/07 03:42:59;;;;;;;214.75;195.55;;;;;;;;;;5054750;28;20024;-76
2021/03/07 03:45:26;;;;;;;1545.57;791.47;;;;;;;;;;5055646;28;20140;-77
2021/03/07 03:47:55;;;;;;;201.95;183.15;;;;;;;;;;5059847;28;20023;-77
2021/03/07 03:50:22;;;;;;;646.70;382.05;;;;;;;;;;5062131;28;20480;-76
2021/03/07 03:52:49;;;;;;;193.48;173.73;;;;;;;;;;5064153;28;20123;-76
2021/03/07 03:55:20;;;;;;;205.57;186.50;;;;;;;;;;5057344;28;20520;-76
2021/03/07 03:57:48;;;;;;;201.15;182.13;;;;;;;;;;5064258;28;20021;-76
2021/03/07 04:00:15;;;;;;;211.00;190.00;;;;;;;;;;5059883;28;20115;-76
2021/03/07 04:02:41;;;;;;;193.77;174.45;;;;;;;;;;5060516;28;20032;-78
2021/03/07 04:05:08;;;;;;;208.68;189.10;;;;;;;;;;5066950;28;20114;-77
2021/03/07 04:07:34;;;;;;;1102.63;593.17;;;;;;;;;;5066928;28;20039;-76
2021/03/07 04:10:00;;;;;;;202.90;182.88;;;;;;;;;;5058882;28;20033;-77
2021/03/07 04:12:26;;;;;;;198.75;179.35;;;;;;;;;;5065279;28;20082;-76
2021/03/07 04:14:52;;;;;;;1999.90;999.90;;;;;;;;;;5065511;28;20020;-76
2021/03/07 04:17:21;;;;;;;196.02;177.40;;;;;;;;;;5060661;28;20059;-77
2021/03/07 04:19:47;;;;;;;200.48;181.55;;;;;;;;;;5065155;28;20029;-77
2021/03/07 04:22:13;;;;;;;198.63;179.68;;;;;;;;;;5053391;28;20574;-77
2021/03/07 04:24:39;;;;;;;187.55;170.10;;;;;;;;;;5056457;28;20028;-76
2021/03/07 04:27:05;;;;;;;201.18;181.32;;;;;;;;;;5052979;28;20037;-76
2021/03/07 04:29:31;;;;;;;235.10;214.32;;;;;;;;;;5056226;28;20017;-77
2021/03/07 04:31:56;;;;;;;647.42;383.17;;;;;;;;;;5061201;28;20170;-76
2021/03/07 04:34:22;;;;;;;199.65;180.57;;;;;;;;;;5067089;28;20483;-77
2021/03/07 04:36:47;;;;;;;203.02;185.07;;;;;;;;;;5063100;28;20113;-77
2021/03/07 04:39:13;;;;;;;196.20;175.60;;;;;;;;;;5066443;28;20577;-77
2021/03/07 04:41:38;;;;;;;205.65;185.05;;;;;;;;;;5060026;28;20027;-77
2021/03/07 04:44:04;;;;;;;205.65;186.25;;;;;;;;;;5063169;28;20037;-78
2021/03/07 04:46:29;;;;;;;1099.65;590.20;;;;;;;;;;5058532;28;20527;-77
2021/03/07 04:48:55;;;;;;;1999.90;999.90;;;;;;;;;;5055859;28;20056;-77
2021/03/07 04:51:21;;;;;;;1999.90;999.90;;;;;;;;;;5057529;28;20090;-76
2021/03/07 04:53:46;;;;;;;649.67;385.85;;;;;;;;;;5066214;28;20029;-77
2021/03/07 04:56:12;;;;;;;203.93;185.25;;;;;;;;;;5066309;28;20038;-77
2021/03/07 04:58:37;;;;;;;202.80;185.00;;;;;;;;;;5064914;28;20082;-77
2021/03/07 05:01:03;;;;;;;715.55;444.73;;;;;;;;;;5064254;28;20043;-77
2021/03/07 05:03:29;;;;;;;208.30;189.10;;;;;;;;;;5059726;28;20105;-77
2021/03/07 05:05:55;;;;;;;218.05;197.48;;;;;;;;;;5052038;28;20381;-78
2021/03/07 05:08:20;;;;;;;213.77;193.02;;;;;;;;;;5060788;28;20046;-77
2021/03/07 05:10:45;;;;;;;226.80;206.68;;;;;;;;;;5064711;28;20499;-77
2021/03/07 05:13:11;;;;;;;258.50;234.93;;;;;;;;;;5059997;28;20009;-77
2021/03/07 05:15:37;;;;;;;222.20;201.40;;;;;;;;;;5066649;28;20056;-77
2021/03/07 05:18:03;;;;;;;206.55;186.77;;;;;;;;;;5060880;28;20100;-77
2021/03/07 05:20:28;;;;;;;208.18;187.80;;;;;;;;;;5067771;28;20115;-76
2021/03/07 05:22:53;;;;;;;221.07;199.88;;;;;;;;;;5061639;28;20025;-77
2021/03/07 05:25:19;;;;;;;206.80;187.32;;;;;;;;;;5072780;28;20041;-77
2021/03/07 05:27:44;;;;;;;238.70;216.60;;;;;;;;;;5058975;28;20033;-77
2021/03/07 05:30:10;;;;;;;245.35;223.38;;;;;;;;;;5069207;28;20366;-77
2021/03/07 05:32:36;;;;;;;237.45;215.80;;;;;;;;;;5066152;28;20082;-77
2021/03/07 05:35:01;;;;;;;239.05;217.52;;;;;;;;;;5070532;28;20102;-77
2021/03/07 05:37:27;;;;;;;218.75;196.50;;;;;;;;;;5061877;28;20048;-77
2021/03/07 05:39:52;;;;;;;206.98;187.30;;;;;;;;;;5066563;28;20062;-77
2021/03/07 05:42:19;;;;;;;1101.70;592.55;;;;;;;;;;5067736;28;20472;-77
2021/03/07 05:44:44;;;;;;;212.38;192.05;;;;;;;;;;5064782;28;20032;-76
2021/03/07 05:47:10;;;;;;;204.07;183.80;;;;;;;;;;5068319;28;20024;-78
2021/03/07 05:49:35;;;;;;;1118.60;608.05;;;;;;;;;;5068585;28;20036;-81
2021/03/07 05:52:01;;;;;;;209.93;189.65;;;;;;;;;;5067483;28;20055;-78
2021/03/07 05:54:26;;;;;;;659.70;393.95;;;;;;;;;;5070699;28;20051;-80
2021/03/07 05:56:52;;;;;;;1999.90;999.90;;;;;;;;;;5077968;28;20621;-77
2021/03/07 05:59:18;;;;;;;1999.90;999.90;;;;;;;;;;5068263;28;20104;-76
2021/03/07 06:01:43;;;;;;;1105.53;595.97;;;;;;;;;;5070746;28;20039;-76
2021/03/07 06:04:09;;;;;;;219.50;198.70;;;;;;;;;;5070116;28;20048;-77
2021/03/07 06:06:34;;;;;;;203.50;183.40;;;;;;;;;;5067370;28;20098;-77
2021/03/07 06:09:20;;;;;;;204.60;185.43;;;;;;;;;;5068786;28;20056;-77
2021/03/07 06:11:46;;;;;;;200.68;182.30;;;;;;;;;;5066887;28;20040;-77
2021/03/07 06:14:20;;;;;;;671.80;405.88;;;;;;;;;;5069060;28;20013;-77
2021/03/07 06:17:06;;;;;;;632.58;370.17;;;;;;;;;;5067820;28;20036;-77
2021/03/07 06:19:52;;;;;;;653.10;388.10;;;;;;;;;;5068920;28;20127;-77
2021/03/07 06:22:17;;;;;;;201.15;181.45;;;;;;;;;;5067449;28;20459;-77
2021/03/07 06:24:43;;;;;;;215.70;195.60;;;;;;;;;;5068627;28;20064;-78
2021/03/07 06:27:09;;;;;;;236.32;214.63;;;;;;;;;;5070492;28;20437;-77
2021/03/07 06:29:58;;;;;;;225.52;204.98;;;;;;;;;;5065980;28;20115;-77
2021/03/07 06:32:27;;;;;;;300.23;272.35;;;;;;;;;;5060891;28;20784;-77
2021/03/07 06:34:53;;;;;;;212.63;190.85;;;;;;;;;;5063908;28;20568;-77
2021/03/07 06:37:19;;;;;;;204.95;184.50;;;;;;;;;;5064616;28;20121;-77
2021/03/07 06:39:45;;;;;;;1558.03;802.70;;;;;;;;;;5067129;28;20047;-77
2021/03/07 06:42:11;;;;;;;214.68;194.05;;;;;;;;;;5064678;28;20008;-77
2021/03/07 06:44:37;;;;;;;1096.95;587.72;;;;;;;;;;5062869;28;20041;-76
2021/03/07 06:47:07;;;;;;;206.40;185.65;;;;;;;;;;5064640;28;20013;-77
2021/03/07 06:49:32;;;;;;;217.48;197.63;;;;;;;;;;5064199;28;20115;-78
2021/03/07 06:52:13;;;;;;;1999.90;999.90;;;;;;;;;;5061771;28;20096;-78
2021/03/07 06:54:39;;;;;;;237.32;214.07;;;;;;;;;;5060885;28;20028;-77
2021/03/07 06:57:05;;;;;;;675.30;408.95;;;;;;;;;;5064714;28;20099;-77
2021/03/07 06:59:30;;;;;;;1546.45;792.05;;;;;;;;;;5066449;28;20028;-78
2021/03/07 07:01:56;;;;;;;256.58;232.20;;;;;;;;;;5063908;28;20025;-78
2021/03/07 07:04:23;;;;;;;1999.90;999.90;;;;;;;;;;5066539;28;20094;-78
2021/03/07 07:07:02;;;;;;;1999.90;999.90;;;;;;;;;;5064991;28;20037;-78
2021/03/07 07:09:27;;;;;;;1999.90;999.90;;;;;;;;;;5065031;28;20029;-76
2021/03/07 07:11:54;;;;;;;1999.90;999.90;;;;;;;;;;5065780;28;20025;-76
2021/03/07 07:14:41;;;;;;;192.63;174.55;;;;;;;;;;5066984;28;20111;-77
2021/03/07 07:17:08;;;;;;;1999.90;999.90;;;;;;;;;;5064264;28;20017;-77
2021/03/07 07:19:34;;;;;;;1999.90;999.90;;;;;;;;;;5068689;28;20039;-78
2021/03/07 07:21:59;;;;;;;203.80;185.00;;;;;;;;;;5067465;28;20028;-77
2021/03/07 07:24:25;;;;;;;677.80;411.15;;;;;;;;;;5067365;28;20068;-77
2021/03/07 07:26:51;;;;;;;1999.90;999.90;;;;;;;;;;5067933;28;20098;-77
2021/03/07 07:29:17;;;;;;;226.40;205.13;;;;;;;;;;5064988;28;20017;-78
2021/03/07 07:31:50;;;;;;;204.43;183.95;;;;;;;;;;5072176;28;20028;-78
2021/03/07 07:34:17;;;;;;;219.57;199.00;;;;;;;;;;5065112;28;20476;-76
2021/03/07 07:36:49;;;;;;;1999.90;999.90;;;;;;;;;;5068837;28;20024;-77
2021/03/07 07:39:16;;;;;;;222.43;200.52;;;;;;;;;;5070243;28;21782;-77
2021/03/07 07:41:42;;;;;;;231.38;209.90;;;;;;;;;;5066343;28;20023;-78
2021/03/07 07:44:09;;;;;;;1999.90;999.90;;;;;;;;;;5064237;28;20480;-77
2021/03/07 07:46:34;;;;;;;1999.90;999.90;;;;;;;;;;5053607;28;20096;-77
2021/03/07 07:49:00;;;;;;;1999.90;999.90;;;;;;;;;;5065544;28;20099;-76
2021/03/07 07:51:29;;;;;;;1999.90;999.90;;;;;;;;;;5065784;28;20036;-77
2021/03/07 07:53:55;;;;;;;1533.85;780.80;;;;;;;;;;5062131;28;20037;-76
2021/03/07 07:56:37;;;;;;;1999.90;999.90;;;;;;;;;;5063738;28;20035;-77
2021/03/07 07:59:07;;;;;;;1999.90;999.90;;;;;;;;;;5061476;28;20017;-78
2021/03/07 08:01:48;;;;;;;1999.90;999.90;;;;;;;;;;5065508;28;20037;-76
2021/03/07 08:04:29;;;;;;;1999.90;999.90;;;;;;;;;;5064517;28;20416;-78
2021/03/07 08:06:55;;;;;;;1999.90;999.90;;;;;;;;;;5067819;28;20083;-77
2021/03/07 08:09:36;;;;;;;1999.90;999.90;;;;;;;;;;5064581;28;20462;-78
2021/03/07 08:12:22;;;;;;;1999.90;999.90;;;;;;;;;;5068369;28;20032;-78
2021/03/07 08:14:48;;;;;;;1999.90;999.90;;;;;;;;;;5069551;28;20430;-77
2021/03/07 08:17:33;;;;;;;1999.90;999.90;;;;;;;;;;5064891;28;20104;-77
2021/03/07 08:19:59;;;;;;;1999.90;999.90;;;;;;;;;;5064205;28;20155;-77
2021/03/07 08:22:24;;;;;;;1999.90;999.90;;;;;;;;;;5068131;28;20627;-77
2021/03/07 08:24:53;;;;;;;1999.90;999.90;;;;;;;;;;5067612;28;20476;-78
2021/03/07 08:27:36;;;;;;;1999.90;999.90;;;;;;;;;;5066468;28;20021;-77
2021/03/07 08:30:02;;;;;;;1999.90;999.90;;;;;;;;;;5065187;28;20028;-77
2021/03/07 08:32:29;;;;;;;1999.90;999.90;;;;;;;;;;5063372;28;20634;-77
2021/03/07 08:34:55;;;;;;;1999.90;999.90;;;;;;;;;;5062997;28;20059;-77
2021/03/07 08:37:21;;;;;;;1999.90;999.90;;;;;;;;;;5066070;28;20027;-77
2021/03/07 08:39:46;;;;;;;1999.90;999.90;;;;;;;;;;5062248;28;20029;-77
2021/03/07 08:42:12;;;;;;;1999.90;999.90;;;;;;;;;;5065493;28;20011;-77
2021/03/07 08:44:37;;;;;;;1999.90;999.90;;;;;;;;;;5063172;28;20382;-78
2021/03/07 08:47:03;;;;;;;1999.90;999.90;;;;;;;;;;5065481;28;20434;-78
2021/03/07 08:49:30;;;;;;;1999.90;999.90;;;;;;;;;;5064868;28;20024;-78
2021/03/07 08:52:03;;;;;;;1999.90;999.90;;;;;;;;;;5064405;28;20027;-79
2021/03/07 08:54:30;;;;;;;1999.90;999.90;;;;;;;;;;5062886;28;20115;-79
2021/03/07 08:56:56;;;;;;;1999.90;999.90;;;;;;;;;;5063835;28;20025;-79
2021/03/07 08:59:28;;;;;;;1999.90;999.90;;;;;;;;;;5065006;28;20461;-79
2021/03/07 09:01:54;;;;;;;1999.90;999.90;;;;;;;;;;5062919;28;20071;-80
2021/03/07 09:04:20;;;;;;;1999.90;999.90;;;;;;;;;;5061883;28;20036;-82
2021/03/07 09:06:47;;;;;;;1999.90;999.90;;;;;;;;;;5050317;28;20044;-80
2021/03/07 09:09:12;;;;;;;1999.90;999.90;;;;;;;;;;5066895;28;20384;-80
2021/03/07 09:11:49;;;;;;;1999.90;999.90;;;;;;;;;;5063619;28;20036;-80
2021/03/07 09:14:15;;;;;;;1999.90;999.90;;;;;;;;;;5064291;28;20489;-79
2021/03/07 09:16:42;;;;;;;1999.90;999.90;;;;;;;;;;5063915;28;20048;-79
2021/03/07 09:19:21;;;;;;;1999.90;999.90;;;;;;;;;;5060427;28;20040;-79
2021/03/07 09:21:46;;;;;;;1999.90;999.90;;;;;;;;;;5066334;28;20029;-82
2021/03/07 09:24:12;;;;;;;1999.90;999.90;;;;;;;;;;5065917;28;20353;-82
2021/03/07 09:26:37;;;;;;;1999.90;999.90;;;;;;;;;;5065596;28;20033;-82
2021/03/07 09:29:03;;;;;;;1999.90;999.90;;;;;;;;;;5063094;28;20116;-82
2021/03/07 09:31:33;;;;;;;1999.90;999.90;;;;;;;;;;5064287;28;20036;-80
2021/03/07 09:34:00;;;;;;;1999.90;999.90;;;;;;;;;;5061341;28;20032;-80
2021/03/07 09:36:29;;;;;;;1999.90;999.90;;;;;;;;;;5065661;28;20029;-79
2021/03/07 09:38:56;;;;;;;1999.90;999.90;;;;;;;;;;5058864;28;20075;-80
2021/03/07 09:41:37;;;;;;;1999.90;999.90;;;;;;;;;;5064372;28;20023;-80
2021/03/07 09:44:06;;;;;;;1999.90;999.90;;;;;;;;;;5059452;28;20045;-81
2021/03/07 09:46:32;;;;;;;1999.90;999.90;;;;;;;;;;5065396;28;20032;-80
2021/03/07 09:49:02;;;;;;;1999.90;999.90;;;;;;;;;;5057569;28;20412;-80
2021/03/07 09:51:32;;;;;;;1999.90;999.90;;;;;;;;;;5059127;28;20457;-80
2021/03/07 09:53:58;;;;;;;1999.90;999.90;;;;;;;;;;5060052;28;20102;-81
2021/03/07 09:56:28;;;;;;;1999.90;999.90;;;;;;;;;;5064228;28;20547;-80
2021/03/07 09:58:53;;;;;;;1999.90;999.90;;;;;;;;;;5063013;28;20035;-80
2021/03/07 10:01:19;;;;;;;1999.90;999.90;;;;;;;;;;5063415;28;20008;-80
2021/03/07 10:03:44;;;;;;;1999.90;999.90;;;;;;;;;;5062905;28;20124;-80
2021/03/07 10:06:11;;;;;;;1999.90;999.90;;;;;;;;;;5050743;28;20021;-79
2021/03/07 10:08:37;;;;;;;1999.90;999.90;;;;;;;;;;5060327;28;20419;-80
2021/03/07 10:11:22;;;;;;;1999.90;999.90;;;;;;;;;;5065109;28;20040;-80
2021/03/07 10:14:16;;;;;;;1999.90;999.90;;;;;;;;;;5063969;28;20484;-76
2021/03/07 10:16:49;;;;;;;1999.90;999.90;;;;;;;;;;5056791;28;20044;-78
2021/03/07 10:19:15;;;;;;;1999.90;999.90;;;;;;;;;;5067648;28;20048;-79
2021/03/07 10:21:41;;;;;;;1999.90;999.90;;;;;;;;;;5066431;28;20032;-79
2021/03/07 10:24:11;;;;;;;1999.90;999.90;;;;;;;;;;5065549;28;20029;-81
2021/03/07 10:26:37;;;;;;;1999.90;999.90;;;;;;;;;;5068120;28;20089;-80
2021/03/07 10:29:21;;;;;;;1999.90;999.90;;;;;;;;;;5061693;28;20047;-80
2021/03/07 10:31:59;;;;;;;1999.90;999.90;;;;;;;;;;5054478;28;20088;-80
2021/03/07 10:34:36;;;;;;;1999.90;999.90;;;;;;;;;;5056314;28;20061;-80
2021/03/07 10:37:03;;;;;;;201.10;182.20;;;;;;;;;;5064330;28;20051;-80
2021/03/07 10:39:28;;;;;;;244.43;219.57;;;;;;;;;;5069189;28;20025;-80
2021/03/07 10:42:07;;;;;;;1999.90;999.90;;;;;;;;;;5065544;28;20553;-78
2021/03/07 10:44:33;;;;;;;1999.90;999.90;;;;;;;;;;5066255;28;20067;-81
2021/03/07 10:47:12;;;;;;;279.65;249.52;;;;;;;;;;5062793;28;20055;-78
2021/03/07 10:49:37;;;;;;;276.33;249.02;;;;;;;;;;5065752;28;20075;-78
2021/03/07 10:52:03;;;;;;;250.63;225.95;;;;;;;;;;5066603;28;20436;-78
2021/03/07 10:54:28;;;;;;;228.50;206.82;;;;;;;;;;5064223;28;20032;-76
2021/03/07 10:56:54;;;;;;;194.05;175.93;;;;;;;;;;5063785;28;20086;-74
2021/03/07 10:59:19;;;;;;;141.77;130.43;;;;;;;;;;5067156;28;20802;-75
2021/03/07 11:01:44;;;;;;;133.93;124.47;;;;;;;;;;5061244;28;20036;-75
2021/03/07 11:04:10;;;;;;;141.40;130.23;;;;;;;;;;5062432;28;20124;-75
2021/03/07 11:06:35;;;;;;;143.43;131.80;;;;;;;;;;5061728;28;20464;-75
2021/03/07 11:09:01;;;;;;;144.48;132.98;;;;;;;;;;5059726;28;20029;-85
2021/03/07 11:11:26;;;;;;;115.95;107.70;;;;;;;;;;5065755;28;20020;-80
2021/03/07 11:13:51;;;;;;;1514.85;763.80;;;;;;;;;;5061365;28;20032;-80
2021/03/07 11:16:17;;;;;;;93.97;87.28;;;;;;;;;;5067923;28;20468;-79
2021/03/07 11:18:42;;;;;;;1999.90;999.90;;;;;;;;;;5061445;28;20036;-78
2021/03/07 11:21:08;;;;;;;1999.90;999.90;;;;;;;;;;5063405;28;20016;-78
2021/03/07 11:23:34;;;;;;;55.08;51.28;;;;;;;;;;5067404;28;20034;-79
2021/03/07 11:25:59;;;;;;;66.40;61.63;;;;;;;;;;5064045;28;20032;-76
2021/03/07 11:28:25;;;;;;;64.40;60.08;;;;;;;;;;5066602;28;20035;-80
2021/03/07 11:30:50;;;;;;;71.57;66.18;;;;;;;;;;5052807;28;20826;-79
2021/03/07 11:33:18;;;;;;;71.05;66.30;;;;;;;;;;5061176;28;20028;-80
2021/03/07 11:35:43;;;;;;;58.13;54.22;;;;;;;;;;5057984;28;20074;-80
2021/03/07 11:38:09;;;;;;;57.63;53.63;;;;;;;;;;5066601;28;20041;-80
2021/03/07 11:40:34;;;;;;;56.88;53.15;;;;;;;;;;5062711;28;20070;-79
2021/03/07 11:42:59;;;;;;;49.92;46.67;;;;;;;;;;5062651;28;20043;-79
2021/03/07 11:45:25;;;;;;;58.63;54.60;;;;;;;;;;5063440;28;20028;-80
2021/03/07 11:47:50;;;;;;;58.45;54.63;;;;;;;;;;5060435;28;20541;-80
2021/03/07 11:50:16;;;;;;;60.42;56.60;;;;;;;;;;5070440;28;20801;-80
2021/03/07 11:52:41;;;;;;;72.00;67.18;;;;;;;;;;5065224;28;20032;-80
2021/03/07 11:55:07;;;;;;;50.88;47.50;;;;;;;;;;5061045;28;20024;-82
2021/03/07 11:57:34;;;;;;;1999.90;999.90;;;;;;;;;;5067756;28;20020;-79
2021/03/07 12:00:00;;;;;;;1029.57;527.67;;;;;;;;;;5063163;28;20020;-79
2021/03/07 12:02:25;;;;;;;1999.90;999.90;;;;;;;;;;5069645;28;20028;-82
2021/03/07 12:04:50;;;;;;;1026.55;524.85;;;;;;;;;;5087021;28;20090;-81
2021/03/07 12:07:16;;;;;;;1999.90;999.90;;;;;;;;;;5091342;28;20044;-81
2021/03/07 12:09:42;;;;;;;1999.90;999.90;;;;;;;;;;5073137;28;20790;-82
2021/03/07 12:12:08;;;;;;;1999.90;999.90;;;;;;;;;;5063749;28;20407;-81
2021/03/07 12:14:33;;;;;;;1999.90;999.90;;;;;;;;;;5074156;28;20024;-81
2021/03/07 12:16:59;;;;;;;1999.90;999.90;;;;;;;;;;5065398;28;20029;-82
2021/03/07 12:19:25;;;;;;;1999.90;999.90;;;;;;;;;;5074908;28;20024;-82
2021/03/07 12:21:51;;;;;;;1999.90;999.90;;;;;;;;;;5059078;28;20037;-81
2021/03/07 12:24:17;;;;;;;1999.90;999.90;;;;;;;;;;5059786;28;20020;-80
2021/03/07 12:26:42;;;;;;;1999.90;999.90;;;;;;;;;;5059398;28;20044;-81
2021/03/07 12:29:07;;;;;;;1999.90;999.90;;;;;;;;;;5062275;28;20084;-81
2021/03/07 12:31:33;;;;;;;1999.90;999.90;;;;;;;;;;5065256;28;20036;-81
2021/03/07 12:33:59;;;;;;;1999.90;999.90;;;;;;;;;;5058860;28;20040;-82
2021/03/07 12:36:24;;;;;;;1999.90;999.90;;;;;;;;;;5063911;28;20028;-82
2021/03/07 12:38:50;;;;;;;1999.90;999.90;;;;;;;;;;5064717;28;20025;-81
2021/03/07 12:41:15;;;;;;;1999.90;999.90;;;;;;;;;;5068962;28;20024;-82
2021/03/07 12:43:41;;;;;;;1999.90;999.90;;;;;;;;;;5067747;28;20025;-81
2021/03/07 12:46:06;;;;;;;1999.90;999.90;;;;;;;;;;5059461;28;20033;-82
2021/03/07 12:48:32;;;;;;;1999.90;999.90;;;;;;;;;;5058517;28;20017;-82
2021/03/07 12:50:58;;;;;;;1999.90;999.90;;;;;;;;;;5065397;28;20033;-82
2021/03/07 12:53:24;;;;;;;1999.90;999.90;;;;;;;;;;5067509;28;20030;-81
2021/03/07 12:55:49;;;;;;;1999.90;999.90;;;;;;;;;;5059329;28;20032;-81
2021/03/07 12:58:14;;;;;;;1999.90;999.90;;;;;;;;;;5063929;28;20060;-80
2021/03/07 13:00:40;;;;;;;1999.90;999.90;;;;;;;;;;5059744;28;20025;-81
2021/03/07 13:03:05;;;;;;;1999.90;999.90;;;;;;;;;;5063210;28;20035;-81
2021/03/07 13:05:30;;;;;;;1999.90;999.90;;;;;;;;;;5059992;28;20085;-81
2021/03/07 13:07:56;;;;;;;1999.90;999.90;;;;;;;;;;5059578;28;20082;-81
2021/03/07 13:10:21;;;;;;;1999.90;999.90;;;;;;;;;;5061052;28;20036;-82
2021/03/07 13:12:47;;;;;;;1999.90;999.90;;;;;;;;;;5059467;28;20448;-81
2021/03/07 13:15:13;;;;;;;1999.90;999.90;;;;;;;;;;5056641;28;20033;-80
2021/03/07 13:17:40;;;;;;;1999.90;999.90;;;;;;;;;;5060710;28;20023;-81
2021/03/07 13:20:06;;;;;;;1999.90;999.90;;;;;;;;;;5063430;28;20087;-81
2021/03/07 13:22:32;;;;;;;1999.90;999.90;;;;;;;;;;5059696;28;20488;-81
2021/03/07 13:24:57;;;;;;;1999.90;999.90;;;;;;;;;;5057544;28;20037;-81
2021/03/07 13:27:23;;;;;;;1999.90;999.90;;;;;;;;;;5060816;28;20476;-81
2021/03/07 13:29:48;;;;;;;1999.90;999.90;;;;;;;;;;5064708;28;20040;-75
2021/03/07 13:32:14;;;;;;;1999.90;999.90;;;;;;;;;;5064082;28;20024;-76
2021/03/07 13:34:40;;;;;;;1999.90;999.90;;;;;;;;;;5067379;28;20569;-69
2021/03/07 13:37:05;;;;;;;1999.90;999.90;;;;;;;;;;5056832;28;20044;-80
2021/03/07 13:39:31;;;;;;;1999.90;999.90;;;;;;;;;;5059485;28;20435;-81
2021/03/07 13:41:57;;;;;;;1999.90;999.90;;;;;;;;;;5060599;28;20029;-80
2021/03/07 13:44:23;;;;;;;1999.90;999.90;;;;;;;;;;5068699;28;20526;-80
2021/03/07 13:46:48;;;;;;;1999.90;999.90;;;;;;;;;;5069379;28;20025;-80